Time;durP1;ratioP1;P1;durP2;ratioP2;P2;SDS_P1;SDS_P2;PMS_P1;PMS_P2;Temp;Humidity;BMP_temperature;BMP_pressure;BME280_temperature;BME280_humidity;BME280_pressure;Samples;Min_cycle;Max_cycle;Signal;HPM_P1;HPM_P2
2022/04/27 00:01:00;;;;;;;10.05;5.20;;;;;;;16.44;46.84;100305.25;5365758;32;35424;-64
2022/04/27 00:04:03;;;;;;;10.63;5.72;;;;;;;17.18;44.82;100299.44;5364308;32;35725;-62
2022/04/27 00:07:07;;;;;;;9.57;5.05;;;;;;;16.28;47.13;100296.56;5371339;32;47038;-62
2022/04/27 00:10:09;;;;;;;9.87;5.63;;;;;;;15.75;48.72;100292.84;5342854;32;35039;-60
2022/04/27 00:13:15;;;;;;;11.27;5.47;;;;;;;16.43;47.16;100291.13;5372084;32;34567;-61
2022/04/27 00:16:18;;;;;;;11.37;5.40;;;;;;;16.79;46.20;100297.66;5357354;32;34966;-65
2022/04/27 00:19:20;;;;;;;10.60;5.20;;;;;;;16.87;46.28;100291.84;5347315;32;34651;-63
2022/04/27 00:22:23;;;;;;;9.73;5.18;;;;;;;16.52;46.75;100290.53;5367242;32;35419;-61
2022/04/27 00:25:25;;;;;;;10.77;5.43;;;;;;;16.52;47.04;100284.37;5356746;32;34239;-63
2022/04/27 00:28:28;;;;;;;11.63;5.22;;;;;;;16.55;47.13;100291.25;5369210;32;34150;-60
2022/04/27 00:31:31;;;;;;;11.07;5.77;;;;;;;16.11;48.11;100301.16;5356321;32;35262;-60
2022/04/27 00:34:34;;;;;;;9.20;4.93;;;;;;;16.45;47.18;100299.00;5375016;32;35534;-63
2022/04/27 00:37:36;;;;;;;10.13;4.95;;;;;;;16.62;46.52;100290.78;5355323;32;44485;-60
2022/04/27 00:40:39;;;;;;;11.33;5.27;;;;;;;16.71;46.24;100297.31;5360562;32;35167;-63
2022/04/27 00:43:42;;;;;;;9.63;4.83;;;;;;;17.74;43.55;100276.09;5371001;32;35793;-62
2022/04/27 00:46:44;;;;;;;9.27;5.10;;;;;;;17.05;45.34;100303.88;5340935;32;34958;-61
2022/04/27 00:49:48;;;;;;;11.07;5.43;;;;;;;16.11;47.59;100313.56;5357510;32;34378;-61
2022/04/27 00:52:51;;;;;;;9.77;5.47;;;;;;;17.21;45.45;100325.81;5357055;32;35387;-64
2022/04/27 00:55:53;;;;;;;10.82;5.68;;;;;;;16.75;46.91;100334.19;5372205;32;34236;-62
2022/04/27 00:58:55;;;;;;;8.90;4.97;;;;;;;16.63;47.17;100331.44;5356520;32;36483;-64
2022/04/27 01:01:57;;;;;;;12.13;5.10;;;;;;;16.48;47.27;100328.81;5355188;32;33831;-62
2022/04/27 01:05:00;;;;;;;9.35;5.45;;;;;;;15.47;50.14;100331.59;5374041;32;34932;-63
2022/04/27 01:08:02;;;;;;;8.00;4.33;;;;;;;15.97;48.37;100309.09;5357965;32;34756;-63
2022/04/27 01:11:06;;;;;;;9.18;4.70;;;;;;;16.69;45.84;100337.19;5374242;32;34809;-61
2022/04/27 01:14:08;;;;;;;9.23;4.83;;;;;;;15.88;47.75;100331.75;5360190;32;45009;-62
2022/04/27 01:17:10;;;;;;;9.00;4.83;;;;;;;15.45;48.76;100334.31;5372509;32;34548;-63
2022/04/27 01:20:12;;;;;;;10.43;4.70;;;;;;;15.47;49.56;100328.09;5360357;32;35071;-63
2022/04/27 01:23:14;;;;;;;10.20;5.20;;;;;;;15.38;49.88;100332.97;5358470;32;34219;-63
2022/04/27 01:26:17;;;;;;;9.48;4.47;;;;;;;15.62;49.54;100329.84;5367334;32;34591;-65
2022/04/27 01:29:20;;;;;;;10.07;5.10;;;;;;;15.83;49.37;100338.28;5354347;32;34736;-60
2022/04/27 01:32:22;;;;;;;9.20;4.50;;;;;;;15.57;50.85;100338.03;5373232;32;34690;-62
2022/04/27 01:35:24;;;;;;;8.53;5.07;;;;;;;15.33;51.37;100342.16;5359258;32;34165;-60
2022/04/27 01:38:32;;;;;;;8.40;4.33;;;;;;;15.65;51.23;100345.56;5371197;32;34487;-61
2022/04/27 01:41:36;;;;;;;9.67;4.70;;;;;;;15.27;52.24;100348.69;5362126;32;38142;-62
2022/04/27 01:44:39;;;;;;;10.20;5.00;;;;;;;15.34;52.20;100349.16;5345458;32;44624;-63
2022/04/27 01:47:41;;;;;;;13.10;4.70;;;;;;;15.54;51.44;100348.81;5357356;32;34694;-62
2022/04/27 01:50:43;;;;;;;10.03;4.83;;;;;;;15.12;53.25;100353.06;5352217;32;35434;-60
2022/04/27 01:57:07;;;;;;;7.97;4.50;;;;;;;15.61;52.33;100375.78;5357410;32;44575;-62
2022/04/27 02:00:10;;;;;;;9.15;5.18;;;;;;;15.03;54.26;100384.50;5372325;32;34141;-60
2022/04/27 02:03:15;;;;;;;12.35;5.30;;;;;;;15.57;52.84;100383.06;5376017;32;35943;-65
2022/04/27 02:06:21;;;;;;;12.57;5.50;;;;;;;15.43;55.13;100391.84;5357630;32;34630;-63
2022/04/27 02:09:23;;;;;;;9.77;5.73;;;;;;;14.86;61.37;100391.62;5371707;32;34638;-62
2022/04/27 02:12:25;;;;;;;11.37;5.87;;;;;;;14.44;60.10;100396.63;5358930;32;34804;-62
2022/04/27 02:15:27;;;;;;;10.90;6.03;;;;;;;14.75;62.96;100390.50;5372370;32;34921;-62
2022/04/27 02:18:29;;;;;;;12.03;6.80;;;;;;;14.39;63.87;100382.81;5359032;32;35557;-63
2022/04/27 02:21:32;;;;;;;10.43;5.73;;;;;;;15.51;57.86;100379.94;5358070;32;34313;-64
2022/04/27 02:24:34;;;;;;;9.57;5.10;;;;;;;14.66;63.54;100380.44;5375679;32;35430;-63
2022/04/27 02:27:37;;;;;;;9.75;5.45;;;;;;;13.63;64.54;100371.91;5355241;32;44464;-61
2022/04/27 02:30:39;;;;;;;11.40;5.87;;;;;;;14.23;64.60;100365.16;5370793;32;35522;-62
2022/04/27 02:33:41;;;;;;;10.40;6.03;;;;;;;15.02;62.81;100359.84;5360807;32;34419;-60
2022/04/27 02:36:44;;;;;;;11.07;6.17;;;;;;;14.78;65.00;100348.03;5372476;32;34465;-61
2022/04/27 02:39:46;;;;;;;9.37;6.20;;;;;;;14.06;66.90;100366.06;5361108;32;34804;-64
2022/04/27 02:42:49;;;;;;;10.87;6.10;;;;;;;14.37;65.05;100359.09;5359068;32;34844;-64
2022/04/27 02:45:52;;;;;;;11.15;5.87;;;;;;;14.60;65.29;100352.56;5374581;32;34656;-61
2022/04/27 02:52:14;;;;;;;11.60;6.43;;;;;;;14.97;64.39;100353.97;5373114;32;44667;-61
2022/04/27 02:55:16;;;;;;;10.87;6.07;;;;;;;14.03;66.82;100360.06;5359049;32;34997;-60
2022/04/27 02:58:19;;;;;;;11.47;6.17;;;;;;;14.05;65.51;100364.34;5363858;32;35482;-60
2022/04/27 03:01:21;;;;;;;11.70;6.47;;;;;;;13.43;69.44;100373.78;5369508;32;35128;-61
2022/04/27 03:04:23;;;;;;;12.40;6.90;;;;;;;14.04;67.12;100361.81;5359718;32;35328;-62
2022/04/27 03:07:25;;;;;;;13.83;6.60;;;;;;;13.95;67.63;100372.84;5379705;32;34128;-62
2022/04/27 03:10:28;;;;;;;10.52;6.40;;;;;;;13.95;67.97;100376.34;5357705;32;35060;-60
2022/04/27 03:13:30;;;;;;;12.57;6.47;;;;;;;13.57;69.95;100380.97;5372607;32;34749;-64
2022/04/27 03:16:32;;;;;;;13.87;6.83;;;;;;;13.60;69.45;100367.62;5357498;32;34938;-61
2022/04/27 03:19:34;;;;;;;14.43;6.67;;;;;;;13.77;68.52;100366.75;5363361;32;34197;-61
2022/04/27 03:22:36;;;;;;;11.83;6.57;;;;;;;13.47;68.87;100372.69;5370382;32;45120;-62
2022/04/27 03:25:38;;;;;;;11.67;6.83;;;;;;;13.55;68.17;100378.44;5357130;32;34650;-62
2022/04/27 03:28:40;;;;;;;11.33;6.43;;;;;;;13.69;67.24;100377.72;5365509;32;35231;-62
2022/04/27 03:31:42;;;;;;;13.80;7.07;;;;;;;13.75;67.00;100373.91;5357125;32;35281;-65
2022/04/27 03:34:46;;;;;;;13.05;7.15;;;;;;;14.38;63.73;100376.66;5373487;32;34335;-61
2022/04/27 03:37:48;;;;;;;13.80;7.90;;;;;;;14.39;64.21;100378.38;5357482;32;34806;-61
2022/04/27 03:40:50;;;;;;;13.27;6.93;;;;;;;14.06;67.81;100381.06;5360657;32;34361;-64
2022/04/27 03:43:52;;;;;;;12.70;6.50;;;;;;;14.55;63.72;100381.88;5372640;32;35553;-64
2022/04/27 03:46:54;;;;;;;11.47;6.87;;;;;;;14.03;64.57;100389.13;5348149;32;35081;-61
2022/04/27 03:50:04;;;;;;;12.37;6.77;;;;;;;14.91;62.72;100388.72;5370632;32;35120;-60
2022/04/27 03:53:06;;;;;;;13.00;6.77;;;;;;;14.41;62.38;100371.19;5357972;32;44667;-61
2022/04/27 03:56:08;;;;;;;13.93;7.27;;;;;;;14.13;64.12;100395.66;5370524;32;35203;-60
2022/04/27 03:59:11;;;;;;;12.47;7.27;;;;;;;13.35;69.06;100398.84;5359116;32;35481;-60
2022/04/27 04:02:13;;;;;;;12.03;6.60;;;;;;;13.99;67.11;100400.81;5357431;32;34974;-60
2022/04/27 04:05:15;;;;;;;12.60;7.07;;;;;;;14.50;63.93;100391.03;5373365;32;35481;-62
2022/04/27 04:08:17;;;;;;;13.67;7.43;;;;;;;14.44;63.05;100396.63;5355731;32;35687;-60
2022/04/27 04:11:20;;;;;;;13.03;6.33;;;;;;;14.72;61.68;100396.84;5371745;32;35207;-61
2022/04/27 04:14:22;;;;;;;13.40;7.47;;;;;;;14.30;62.21;100405.31;5355279;32;35529;-63
2022/04/27 04:17:24;;;;;;;14.70;7.93;;;;;;;14.57;62.20;100406.47;5371582;32;34528;-61
2022/04/27 04:20:26;;;;;;;14.03;7.57;;;;;;;13.66;64.44;100392.87;5362425;32;34927;-62
2022/04/27 04:23:28;;;;;;;13.17;7.63;;;;;;;13.83;64.26;100417.47;5357492;32;34652;-61
2022/04/27 04:29:51;;;;;;;13.43;7.83;;;;;;;14.33;62.37;100408.62;5353648;32;34618;-62
2022/04/27 04:32:53;;;;;;;15.53;8.03;;;;;;;13.97;64.56;100424.66;5372809;32;34634;-60
2022/04/27 04:35:58;;;;;;;14.57;8.37;;;;;;;14.45;61.65;100423.00;5356789;32;34849;-61
2022/04/27 04:39:00;;;;;;;11.57;6.90;;;;;;;14.31;61.76;100425.53;5349418;32;34097;-65
2022/04/27 04:42:03;;;;;;;14.17;7.53;;;;;;;14.41;60.94;100434.66;5370850;32;34779;-61
2022/04/27 04:45:05;;;;;;;12.20;6.80;;;;;;;14.65;60.34;100435.16;5358915;32;45295;-61
2022/04/27 04:48:08;;;;;;;15.43;7.28;;;;;;;14.70;58.55;100435.75;5355040;32;35364;-63
2022/04/27 04:51:10;;;;;;;12.52;6.70;;;;;;;14.06;61.17;100455.06;5357484;32;35168;-61
2022/04/27 04:54:33;;;;;;;12.53;7.57;;;;;;;13.96;61.90;100451.16;5370996;32;35722;-63
2022/04/27 04:57:35;;;;;;;12.65;7.45;;;;;;;13.90;62.55;100459.41;5361077;32;44682;-61
2022/04/27 05:00:37;;;;;;;15.30;8.00;;;;;;;13.88;63.20;100461.28;5357953;32;35240;-63
2022/04/27 05:03:40;;;;;;;12.33;7.33;;;;;;;13.77;61.57;100459.19;5375037;32;34790;-62
2022/04/27 05:06:44;;;;;;;18.00;10.00;;;;;;;14.44;60.01;100455.66;5352347;32;34568;-63
2022/04/27 05:09:46;;;;;;;17.37;7.43;;;;;;;15.34;57.47;100452.44;5373681;32;34385;-61
2022/04/27 05:12:48;;;;;;;17.20;8.60;;;;;;;14.97;59.18;100453.69;5359868;32;34178;-63
2022/04/27 05:15:50;;;;;;;14.27;7.30;;;;;;;15.36;57.33;100463.78;5371372;32;34118;-60
2022/04/27 05:18:52;;;;;;;19.00;8.03;;;;;;;15.70;54.00;100468.00;5361370;32;34645;-66
2022/04/27 05:21:54;;;;;;;14.93;7.20;;;;;;;15.66;56.49;100464.69;5357845;32;34782;-63
2022/04/27 05:25:01;;;;;;;14.50;6.73;;;;;;;16.26;53.19;100463.75;5371209;32;35310;-64
2022/04/27 05:28:04;;;;;;;21.53;6.77;;;;;;;17.44;48.92;100465.03;5351220;32;35599;-61
2022/04/27 05:34:30;;;;;;;11.37;6.43;;;;;;;17.94;46.73;100457.31;5359640;32;35272;-62
2022/04/27 05:37:33;;;;;;;16.40;7.60;;;;;;;18.48;46.79;100460.56;5359493;32;34685;-68
2022/04/27 05:40:36;;;;;;;14.87;7.22;;;;;;;17.97;47.33;100473.03;5367144;32;43278;-67
2022/04/27 05:43:38;;;;;;;11.60;7.03;;;;;;;18.54;44.99;100473.44;5353994;32;35285;-61
2022/04/27 05:46:41;;;;;;;13.98;7.43;;;;;;;19.40;42.80;100454.78;5361461;32;35231;-62
2022/04/27 05:49:43;;;;;;;16.50;7.87;;;;;;;17.26;47.54;100471.56;5339997;32;35729;-62
2022/04/27 05:52:49;;;;;;;14.27;7.30;;;;;;;17.26;47.57;100476.88;5369891;32;33904;-65
2022/04/27 05:55:51;;;;;;;13.70;7.20;;;;;;;17.12;47.39;100474.25;5357917;32;34107;-65
2022/04/27 05:58:54;;;;;;;14.10;7.30;;;;;;;16.69;49.08;100490.28;5347968;32;33889;-62
2022/04/27 06:01:56;;;;;;;13.98;7.55;;;;;;;16.39;49.42;100493.00;5362826;32;35146;-66
2022/04/27 06:04:59;;;;;;;13.25;7.35;;;;;;;15.85;49.82;100501.56;5361718;32;35460;-63
2022/04/27 06:08:01;;;;;;;19.37;8.65;;;;;;;16.00;50.53;100491.84;5371525;32;36495;-61
2022/04/27 06:11:03;;;;;;;16.20;8.20;;;;;;;14.95;53.25;100503.19;5360720;32;35517;-64
2022/04/27 06:14:05;;;;;;;16.62;8.15;;;;;;;15.32;52.78;100497.53;5356961;32;43363;-64
2022/04/27 06:17:08;;;;;;;13.53;7.40;;;;;;;15.21;53.52;100499.94;5359782;32;34127;-66
2022/04/27 06:20:10;;;;;;;12.65;7.70;;;;;;;14.88;54.13;100498.25;5362258;32;33974;-60
2022/04/27 06:23:15;;;;;;;13.07;7.18;;;;;;;16.22;49.47;100494.87;5371986;32;34172;-64
2022/04/27 06:26:18;;;;;;;14.87;7.23;;;;;;;15.22;52.98;100511.41;5359120;32;34503;-66
2022/04/27 06:29:23;;;;;;;15.77;7.03;;;;;;;14.63;54.33;100514.59;5371178;32;34501;-60
2022/04/27 06:32:25;;;;;;;11.97;6.43;;;;;;;14.50;54.74;100518.84;5359965;32;32981;-61
2022/04/27 06:35:27;;;;;;;12.30;6.40;;;;;;;15.95;50.44;100507.16;5369641;32;35245;-63
2022/04/27 06:38:30;;;;;;;11.45;6.55;;;;;;;15.49;51.88;100509.81;5366050;32;35184;-63
2022/04/27 06:41:39;;;;;;;15.10;8.30;;;;;;;15.54;51.96;100510.41;5346849;32;44282;-68
2022/04/27 06:44:42;;;;;;;19.50;8.13;;;;;;;16.75;48.74;100512.00;5370315;32;34045;-66
2022/04/27 06:47:48;;;;;;;12.07;7.20;;;;;;;16.30;50.90;100513.00;5333519;32;33935;-61
2022/04/27 06:50:50;;;;;;;13.70;7.07;;;;;;;15.78;51.73;100510.81;5363336;32;35626;-63
2022/04/27 06:53:55;;;;;;;13.83;6.83;;;;;;;17.06;48.29;100518.00;5358198;32;34028;-61
2022/04/27 06:56:57;;;;;;;11.40;6.20;;;;;;;16.95;49.10;100509.88;5366830;32;35744;-60
2022/04/27 06:59:59;;;;;;;13.23;6.62;;;;;;;16.12;50.55;100522.06;5359782;32;34875;-64
2022/04/27 07:03:02;;;;;;;13.45;6.43;;;;;;;16.88;49.19;100521.84;5362945;32;34277;-66
2022/04/27 07:06:04;;;;;;;10.73;6.40;;;;;;;16.06;50.80;100536.53;5375027;32;34525;-64
2022/04/27 07:09:08;;;;;;;15.00;6.10;;;;;;;16.94;48.50;100534.72;5357219;32;43470;-65
2022/04/27 07:12:12;;;;;;;11.40;6.20;;;;;;;17.16;47.01;100532.41;5357676;32;35828;-61
2022/04/27 07:15:14;;;;;;;11.00;6.70;;;;;;;16.30;50.06;100539.53;5350850;32;34065;-61
2022/04/27 07:18:17;;;;;;;12.68;6.90;;;;;;;16.35;50.28;100541.87;5349983;32;35045;-64
2022/04/27 07:21:21;;;;;;;11.30;6.07;;;;;;;17.24;47.65;100539.88;5362990;32;34328;-63
2022/04/27 07:24:24;;;;;;;13.95;6.95;;;;;;;17.80;46.54;100538.00;5351830;32;37074;-63
2022/04/27 07:27:27;;;;;;;10.15;6.60;;;;;;;19.08;43.03;100552.22;5345781;32;163558;-61
2022/04/27 07:30:29;;;;;;;11.55;6.62;;;;;;;19.29;42.67;100556.00;5358993;32;34104;-62
2022/04/27 07:33:31;;;;;;;10.73;6.75;;;;;;;19.99;40.96;100556.13;5371476;32;35499;-65
2022/04/27 07:36:33;;;;;;;14.45;6.30;;;;;;;22.25;36.16;100558.50;5354259;32;34129;-62
2022/04/27 07:39:36;;;;;;;14.07;7.00;;;;;;;19.31;42.59;100572.72;5352086;32;45714;-64
2022/04/27 07:42:39;;;;;;;10.32;6.00;;;;;;;19.45;41.95;100564.59;5373617;32;35233;-62
2022/04/27 07:45:44;;;;;;;;;;;;;;;20.50;38.92;100558.47;5356278;32;34081;-64
2022/04/27 07:48:46;;;;;;;11.88;6.50;;;;;;;20.64;39.00;100551.19;5347510;32;34580;-64
2022/04/27 07:51:49;;;;;;;;;;;;;;;22.43;35.39;100550.72;5359548;32;37077;-64
2022/04/27 07:54:52;;;;;;;10.23;6.37;;;;;;;22.97;34.31;100549.59;5359708;32;33116;-64
2022/04/27 07:57:56;;;;;;;11.25;6.85;;;;;;;21.80;36.01;100553.34;5365035;32;33468;-62
2022/04/27 08:01:00;;;;;;;11.55;6.70;;;;;;;21.66;36.94;100555.47;5356213;32;34699;-64
2022/04/27 08:04:02;;;;;;;12.70;6.55;;;;;;;22.46;35.13;100555.78;5362933;32;35886;-63
2022/04/27 08:07:05;;;;;;;10.90;6.75;;;;;;;22.01;35.70;100563.22;5359874;32;36412;-60
2022/04/27 08:10:13;;;;;;;12.68;6.55;;;;;;;21.36;37.47;100565.00;5370445;32;44733;-65
2022/04/27 08:13:16;;;;;;;11.70;6.65;;;;;;;19.71;41.49;100564.50;5361494;32;35127;-62
2022/04/27 08:16:18;;;;;;;;;;;;;;;19.07;42.84;100575.34;5373137;32;35571;-66
2022/04/27 08:19:21;;;;;;;13.62;8.32;;;;;;;19.80;41.18;100571.81;5369263;32;35816;-61
2022/04/27 08:22:23;;;;;;;12.68;6.22;;;;;;;18.72;43.94;100580.47;5365451;32;35190;-67
2022/04/27 08:25:25;;;;;;;11.55;6.90;;;;;;;17.51;46.69;100585.91;5358010;32;35268;-65
2022/04/27 08:28:31;;;;;;;14.53;7.57;;;;;;;17.61;46.94;100586.19;5356944;32;33955;-66
2022/04/27 08:31:33;;;;;;;13.33;7.10;;;;;;;17.70;46.92;100588.22;5366075;32;34103;-69
2022/04/27 08:34:36;;;;;;;11.18;6.68;;;;;;;18.11;45.58;100561.59;5363251;32;44865;-62
2022/04/27 08:37:38;;;;;;;13.30;6.93;;;;;;;19.14;43.55;100583.75;5365306;32;34152;-67
2022/04/27 08:40:42;;;;;;;;;;;;;;;17.77;47.42;100591.38;5375359;32;34752;-67
2022/04/27 08:43:44;;;;;;;12.82;6.82;;;;;;;17.12;48.78;100591.12;5363702;32;34262;-62
2022/04/27 08:46:46;;;;;;;18.20;7.20;;;;;;;17.01;49.71;100591.81;5360600;32;34205;-67
2022/04/27 08:49:49;;;;;;;12.18;6.72;;;;;;;16.96;49.61;100597.41;5346511;32;36413;-69
2022/04/27 08:52:55;;;;;;;11.18;6.47;;;;;;;17.45;47.86;100589.00;5370045;32;35793;-64
2022/04/27 08:55:57;;;;;;;12.80;6.73;;;;;;;17.77;47.40;100591.38;5358724;32;34323;-68
2022/04/27 08:59:00;;;;;;;16.17;7.03;;;;;;;18.40;45.74;100586.19;5357130;32;34048;-67
2022/04/27 09:02:28;;;;;;;12.85;6.45;;;;;;;17.84;46.91;100590.03;5371076;32;32786;-70
2022/04/27 09:05:30;;;;;;;11.70;6.60;;;;;;;18.29;45.91;100587.88;5361272;32;35535;-63
2022/04/27 09:08:37;;;;;;;19.30;9.45;;;;;;;18.07;46.15;100580.50;5373195;32;35154;-63
2022/04/27 09:11:39;;;;;;;15.93;8.00;;;;;;;18.39;45.42;100579.16;5365326;32;44178;-63
2022/04/27 09:14:44;;;;;;;11.63;6.50;;;;;;;16.52;49.67;100586.81;5362571;32;33984;-67
2022/04/27 09:21:11;;;;;;;14.83;7.13;;;;;;;19.87;41.50;100581.06;5360217;32;45916;-68
2022/04/27 09:24:14;;;;;;;14.60;7.78;;;;;;;19.36;42.51;100581.22;5371727;32;34175;-75
2022/04/27 09:27:18;;;;;;;10.07;6.20;;;;;;;18.83;43.51;100580.59;5362131;32;36169;-71
2022/04/27 09:30:26;;;;;;;14.97;7.43;;;;;;;19.40;41.98;100588.03;5354990;32;34304;-66
2022/04/27 09:33:29;;;;;;;11.47;6.73;;;;;;;17.73;45.00;100587.22;5355528;32;34115;-62
2022/04/27 09:36:32;;;;;;;11.63;7.03;;;;;;;18.63;43.49;100581.09;5356759;32;35167;-65
2022/04/27 09:39:34;;;;;;;13.20;6.75;;;;;;;18.80;43.94;100578.12;5368004;32;34061;-61
2022/04/27 09:42:41;;;;;;;11.90;6.37;;;;;;;19.70;41.87;100570.78;5359669;32;44751;-64
2022/04/27 09:45:43;;;;;;;10.77;7.00;;;;;;;19.94;41.05;100562.75;5370312;32;34135;-66
2022/04/27 09:49:09;;;;;;;13.68;7.05;;;;;;;18.13;45.31;100580.94;5335721;32;34091;-65
2022/04/27 09:52:32;;;;;;;13.43;6.77;;;;;;;17.97;45.52;100574.09;5348571;32;34599;-65
2022/04/27 09:55:34;;;;;;;13.80;7.28;;;;;;;18.02;45.57;100571.97;5372057;32;35351;-62
2022/04/27 09:58:40;;;;;;;11.75;6.93;;;;;;;18.34;44.84;100578.63;5354608;32;44360;-64
2022/04/27 10:01:42;;;;;;;15.17;7.20;;;;;;;17.86;45.95;100580.13;5355526;32;34255;-65
2022/04/27 10:04:45;;;;;;;;;;;;;;;17.60;46.29;100571.19;5362804;32;34227;-64
2022/04/27 10:07:48;;;;;;;16.57;7.43;;;;;;;17.72;46.07;100585.53;5342951;32;34610;-66
2022/04/27 10:10:51;;;;;;;12.43;7.23;;;;;;;17.67;45.95;100576.97;5376806;32;34097;-66
2022/04/27 10:14:00;;;;;;;12.63;7.07;;;;;;;17.40;46.77;100579.59;5358562;32;34131;-62
2022/04/27 10:17:02;;;;;;;11.18;6.50;;;;;;;18.12;45.40;100573.06;5373289;32;34183;-69
2022/04/27 10:20:28;;;;;;;12.95;6.82;;;;;;;18.56;44.35;100571.84;5361644;32;35615;-69
2022/04/27 10:23:33;;;;;;;11.77;7.00;;;;;;;18.62;45.19;100577.59;5365044;32;35265;-62
2022/04/27 10:26:35;;;;;;;10.47;6.43;;;;;;;19.54;42.32;100575.53;5371028;32;46531;-66
2022/04/27 10:29:38;;;;;;;10.13;6.18;;;;;;;18.55;44.72;100580.78;5346806;32;33786;-65
2022/04/27 10:32:44;;;;;;;12.87;6.83;;;;;;;18.16;45.61;100579.87;5367237;32;34105;-66
2022/04/27 10:35:47;;;;;;;18.93;7.37;;;;;;;18.06;45.84;100586.78;5367760;32;34009;-61
2022/04/27 10:39:11;;;;;;;12.15;6.43;;;;;;;18.21;45.60;100583.09;5371483;32;34257;-64
2022/04/27 10:42:19;;;;;;;13.30;6.60;;;;;;;18.05;46.54;100593.06;5362996;32;44484;-67
2022/04/27 10:45:23;;;;;;;15.47;7.20;;;;;;;17.03;48.97;100596.06;5359140;32;34135;-65
2022/04/27 10:48:46;;;;;;;13.17;7.67;;;;;;;16.79;49.93;100594.91;5349624;32;34163;-61
2022/04/27 10:52:07;;;;;;;13.05;7.15;;;;;;;17.69;47.52;100591.84;5358543;32;35526;-65
2022/04/27 10:55:35;;;;;;;11.67;6.60;;;;;;;17.33;48.41;100598.59;5366204;32;45001;-62
2022/04/27 10:58:42;;;;;;;12.43;7.00;;;;;;;17.61;47.28;100594.16;5365456;32;43568;-61
2022/04/27 11:01:51;;;;;;;10.77;6.20;;;;;;;16.89;49.31;100595.22;5363266;32;34216;-64
2022/04/27 11:04:54;;;;;;;12.53;7.30;;;;;;;17.80;47.17;100588.53;5357499;32;34294;-64
2022/04/27 11:08:10;;;;;;;13.20;6.93;;;;;;;16.78;49.75;100578.16;5360599;32;34223;-64
2022/04/27 11:11:17;;;;;;;16.03;6.53;;;;;;;17.06;49.32;100587.03;5364015;32;46496;-64
2022/04/27 11:14:27;;;;;;;17.13;7.13;;;;;;;18.19;46.15;100589.47;5368168;32;35289;-63
2022/04/27 11:17:34;;;;;;;10.77;6.03;;;;;;;17.89;47.10;100595.03;5354806;32;35457;-64
2022/04/27 11:20:38;;;;;;;14.97;7.37;;;;;;;18.16;46.58;100593.16;5373971;32;44372;-64
2022/04/27 11:23:40;;;;;;;11.43;6.70;;;;;;;16.97;50.06;100595.59;5351993;32;35841;-64
2022/04/27 11:26:46;;;;;;;15.43;7.93;;;;;;;16.78;50.79;100596.72;5369407;32;34598;-69
2022/04/27 11:29:50;;;;;;;12.40;7.40;;;;;;;17.42;48.99;100596.28;5349046;32;34026;-64
2022/04/27 11:32:53;;;;;;;14.03;7.37;;;;;;;17.09;49.90;100601.94;5359852;32;35030;-64
2022/04/27 11:35:56;;;;;;;13.67;6.97;;;;;;;17.13;49.53;100604.31;5373061;32;34351;-64
2022/04/27 11:38:58;;;;;;;11.37;6.30;;;;;;;17.21;49.85;100601.19;5358470;32;33963;-67
2022/04/27 11:42:00;;;;;;;13.67;7.37;;;;;;;17.54;48.80;100588.38;5373827;32;34598;-67
2022/04/27 11:45:03;;;;;;;16.27;7.47;;;;;;;17.25;49.85;100606.19;5360938;32;34131;-64
2022/04/27 11:48:09;;;;;;;17.00;7.95;;;;;;;18.00;47.96;100595.16;5352109;32;42482;-65
2022/04/27 11:51:11;;;;;;;15.97;7.80;;;;;;;18.03;49.01;100593.19;5361101;32;34457;-61
2022/04/27 11:54:34;;;;;;;17.10;10.33;;;;;;;17.02;52.34;100610.28;5344218;32;33720;-66
2022/04/27 11:57:37;;;;;;;13.30;7.65;;;;;;;15.83;54.76;100592.69;5362611;32;44584;-59
2022/04/27 12:00:39;;;;;;;14.15;8.05;;;;;;;16.35;53.98;100611.69;5351761;32;35155;-63
2022/04/27 12:03:41;;;;;;;13.83;8.13;;;;;;;17.42;52.28;100606.91;5351309;32;34300;-66
2022/04/27 12:06:45;;;;;;;21.70;9.07;;;;;;;16.53;54.75;100609.75;5345053;32;35281;-62
2022/04/27 12:10:07;;;;;;;17.13;8.50;;;;;;;16.03;58.78;100610.94;5345178;32;34601;-62
2022/04/27 12:13:11;;;;;;;15.63;8.85;;;;;;;15.69;59.67;100607.56;5373558;32;44996;-65
2022/04/27 12:16:13;;;;;;;;;;;;;;;15.66;60.15;100610.41;5354124;32;34717;-70
2022/04/27 12:19:27;;;;;;;19.33;10.67;;;;;;;15.98;60.85;100608.56;5361416;32;35576;-70
2022/04/27 12:22:29;;;;;;;21.77;12.13;;;;;;;15.13;63.07;100621.28;5355200;32;34810;-64
2022/04/27 12:25:42;;;;;;;21.17;11.73;;;;;;;15.12;63.46;100617.78;5347140;32;33967;-65
2022/04/27 12:28:46;;;;;;;21.33;13.30;;;;;;;15.13;63.90;100616.87;5365094;32;45049;-63
2022/04/27 12:31:56;;;;;;;20.93;13.50;;;;;;;15.45;62.68;100616.87;5362898;32;34090;-63
2022/04/27 12:38:27;;;;;;;19.97;12.30;;;;;;;14.61;66.10;100610.81;5355881;32;34471;-61
2022/04/27 12:41:33;;;;;;;20.98;12.80;;;;;;;14.74;65.62;100611.03;5367098;32;34081;-59
2022/04/27 12:44:40;;;;;;;22.57;12.83;;;;;;;14.61;66.31;100606.37;5375945;32;43384;-62
2022/04/27 12:47:46;;;;;;;26.37;13.17;;;;;;;14.68;65.96;100601.62;5335353;32;34225;-65
2022/04/27 12:50:51;;;;;;;17.53;11.47;;;;;;;15.24;64.27;100597.72;5368353;32;34794;-62
2022/04/27 12:53:53;;;;;;;21.63;13.13;;;;;;;14.73;64.87;100607.53;5355398;32;35452;-68
2022/04/27 12:56:59;;;;;;;20.03;12.73;;;;;;;14.49;66.56;100603.53;5356558;32;34065;-65
2022/04/27 13:00:04;;;;;;;22.97;13.33;;;;;;;14.74;66.02;100611.03;5362029;32;35044;-63
2022/04/27 13:03:08;;;;;;;20.90;13.60;;;;;;;15.42;63.84;100607.31;5361462;32;44543;-63
2022/04/27 13:06:10;;;;;;;21.87;14.57;;;;;;;15.37;63.41;100605.84;5379377;32;35757;-65
2022/04/27 13:12:35;;;;;;;21.33;13.70;;;;;;;14.37;67.45;100602.34;5373012;32;36453;-60
2022/04/27 13:15:37;;;;;;;21.07;13.97;;;;;;;14.50;65.97;100611.41;5366631;32;44615;-64
2022/04/27 13:18:40;;;;;;;24.87;13.93;;;;;;;13.74;68.94;100607.28;5362093;32;35671;-59
2022/04/27 13:21:42;;;;;;;21.87;14.10;;;;;;;14.72;66.11;100610.28;5372751;32;33935;-61
2022/04/27 13:24:45;;;;;;;24.75;15.02;;;;;;;14.00;68.36;100609.50;5365315;32;34386;-62
2022/04/27 13:27:55;;;;;;;22.70;13.93;;;;;;;14.31;68.37;100603.53;5369870;32;34174;-63
2022/04/27 13:30:58;;;;;;;25.00;14.57;;;;;;;14.95;65.39;100601.12;5364311;32;34200;-60
2022/04/27 13:34:03;;;;;;;26.83;14.60;;;;;;;14.55;66.64;100605.84;5373215;32;37214;-70
2022/04/27 13:37:05;;;;;;;22.33;13.10;;;;;;;14.51;67.41;100605.19;5364086;32;41794;-63
2022/04/27 13:40:08;;;;;;;18.53;12.03;;;;;;;15.18;64.50;100611.31;5360922;32;35160;-67
2022/04/27 13:43:10;;;;;;;18.35;12.30;;;;;;;14.72;66.57;100613.78;5374437;32;35361;-63
2022/04/27 13:46:13;;;;;;;19.23;11.90;;;;;;;14.73;66.12;100610.19;5361126;32;34158;-69
2022/04/27 13:49:16;;;;;;;17.62;11.20;;;;;;;14.52;66.87;100612.16;5344181;32;34579;-65
2022/04/27 13:52:18;;;;;;;17.23;10.10;;;;;;;14.66;66.74;100613.25;5361532;32;34056;-63
2022/04/27 13:55:21;;;;;;;17.93;11.33;;;;;;;13.97;68.66;100620.19;5370348;32;34089;-64
2022/04/27 13:58:23;;;;;;;18.60;11.57;;;;;;;13.89;67.99;100618.88;5363499;32;34102;-61
2022/04/27 14:01:45;;;;;;;18.40;11.43;;;;;;;14.28;66.76;100614.25;5358501;32;37887;-66
2022/04/27 14:04:48;;;;;;;17.37;9.85;;;;;;;15.12;64.12;100616.94;5360581;32;34044;-61
2022/04/27 14:07:50;;;;;;;17.30;10.23;;;;;;;14.86;64.66;100615.69;5359510;32;34224;-64
2022/04/27 14:10:54;;;;;;;16.83;11.12;;;;;;;13.90;68.47;100625.88;5373592;32;34182;-62
2022/04/27 14:13:56;;;;;;;19.93;11.43;;;;;;;13.63;69.72;100620.13;5362780;32;35976;-59
2022/04/27 14:20:19;;;;;;;23.50;11.43;;;;;;;12.98;72.31;100615.19;5373731;32;37317;-66
2022/04/27 14:23:22;;;;;;;19.60;11.13;;;;;;;13.80;70.55;100614.91;5359137;32;34177;-61
2022/04/27 14:26:24;;;;;;;18.37;11.60;;;;;;;13.27;71.68;100615.69;5371231;32;34155;-63
2022/04/27 14:29:27;;;;;;;17.37;11.00;;;;;;;13.36;73.48;100617.88;5356870;32;35762;-63
2022/04/27 14:32:32;;;;;;;16.77;10.80;;;;;;;13.67;71.85;100616.44;5363166;32;34609;-59
2022/04/27 14:35:36;;;;;;;16.13;10.17;;;;;;;13.25;74.77;100615.72;5363427;32;35443;-60